Time;durP1;ratioP1;P1;durP2;ratioP2;P2;SDS_P1;SDS_P2;PMS_P1;PMS_P2;Temp;Humidity;BMP_temperature;BMP_pressure;BME280_temperature;BME280_humidity;BME280_pressure;Samples;Min_cycle;Max_cycle;Signal;HPM_P1;HPM_P2
2023/12/24 00:02:24;;;;;;;0.90;0.80;;;6.90;99.90;;;;;;5064485;28;20040;-37
2023/12/24 00:04:50;;;;;;;0.77;0.77;;;6.80;99.90;;;;;;5081399;28;20029;-38
2023/12/24 00:07:16;;;;;;;0.70;0.70;;;6.80;99.90;;;;;;5067709;28;20044;-42
2023/12/24 00:09:42;;;;;;;0.60;0.60;;;6.80;99.90;;;;;;5069115;28;20040;-36
2023/12/24 00:12:09;;;;;;;0.60;0.60;;;6.80;99.90;;;;;;5067863;28;20043;-41
2023/12/24 00:14:37;;;;;;;0.70;0.70;;;6.80;99.90;;;;;;5067326;28;20021;-41
2023/12/24 00:17:03;;;;;;;;;;;6.80;99.90;;;;;;5066601;28;20128;-38
2023/12/24 00:19:29;;;;;;;0.70;0.70;;;6.80;99.90;;;;;;5065167;28;19999;-39
2023/12/24 00:21:54;;;;;;;0.80;0.80;;;6.80;99.90;;;;;;5068089;28;20102;-35
2023/12/24 00:24:20;;;;;;;0.70;0.70;;;6.80;99.90;;;;;;5068636;28;20509;-37
2023/12/24 00:26:46;;;;;;;0.63;0.63;;;6.80;99.90;;;;;;5067132;28;20039;-39
2023/12/24 00:29:12;;;;;;;0.75;0.75;;;6.80;99.90;;;;;;5062756;28;20083;-37
2023/12/24 00:31:38;;;;;;;0.70;0.70;;;6.80;99.90;;;;;;5064050;28;20663;-39
2023/12/24 00:34:03;;;;;;;0.80;0.80;;;6.80;99.90;;;;;;5063520;28;20058;-36
2023/12/24 00:36:29;;;;;;;0.60;0.60;;;6.70;99.90;;;;;;5065004;28;20036;-42
2023/12/24 00:38:55;;;;;;;0.70;0.70;;;6.80;99.90;;;;;;5063595;28;20036;-39
2023/12/24 00:41:20;;;;;;;0.60;0.60;;;6.80;99.90;;;;;;5065720;28;20070;-39
2023/12/24 00:43:46;;;;;;;0.70;0.70;;;6.80;99.90;;;;;;5063099;28;20032;-40
2023/12/24 00:46:15;;;;;;;0.73;0.73;;;6.80;99.90;;;;;;5063865;28;20032;-36
2023/12/24 00:48:41;;;;;;;0.77;0.77;;;6.70;99.90;;;;;;5063567;28;20032;-37
2023/12/24 00:51:07;;;;;;;0.73;0.73;;;6.70;99.90;;;;;;5066343;28;20380;-33
2023/12/24 00:53:33;;;;;;;0.60;0.60;;;6.80;99.90;;;;;;5063750;28;20047;-34
2023/12/24 00:55:59;;;;;;;0.80;0.80;;;6.80;99.90;;;;;;5063397;28;20024;-31
2023/12/24 00:58:27;;;;;;;0.60;0.60;;;6.80;99.90;;;;;;5067653;28;20020;-35
2023/12/24 01:00:53;;;;;;;0.60;0.60;;;6.80;99.90;;;;;;5079916;28;20033;-35
2023/12/24 01:03:19;;;;;;;0.60;0.60;;;6.80;99.90;;;;;;5064126;28;20111;-38
2023/12/24 01:05:45;;;;;;;0.90;0.90;;;6.70;99.90;;;;;;5062866;28;20029;-36
2023/12/24 01:08:11;;;;;;;0.70;0.70;;;6.80;99.90;;;;;;5068331;28;20033;-38
2023/12/24 01:10:36;;;;;;;0.60;0.60;;;6.70;99.90;;;;;;5065759;28;20031;-38
2023/12/24 01:13:02;;;;;;;0.68;0.68;;;6.70;99.90;;;;;;5065279;28;20075;-38
2023/12/24 01:15:28;;;;;;;0.60;0.60;;;6.70;99.90;;;;;;5064312;28;20476;-37
2023/12/24 01:17:53;;;;;;;0.90;0.90;;;6.70;99.90;;;;;;5067397;28;20060;-34
2023/12/24 01:20:19;;;;;;;0.70;0.70;;;6.70;99.90;;;;;;5064725;28;20024;-34
2023/12/24 01:22:45;;;;;;;1.85;0.70;;;6.70;99.90;;;;;;5067608;28;20510;-37
2023/12/24 01:25:11;;;;;;;0.55;0.55;;;6.70;99.90;;;;;;5064851;28;20036;-38
2023/12/24 01:27:37;;;;;;;0.70;0.70;;;6.60;99.90;;;;;;5065142;28;20050;-37
2023/12/24 01:30:03;;;;;;;0.70;0.65;;;6.60;99.90;;;;;;5064282;28;20078;-37
2023/12/24 01:32:29;;;;;;;0.70;0.70;;;6.60;99.90;;;;;;5061433;28;20068;-38
2023/12/24 01:34:55;;;;;;;1.85;0.70;;;6.60;99.90;;;;;;5066565;28;20059;-37
2023/12/24 01:37:21;;;;;;;0.70;0.70;;;6.60;99.90;;;;;;5067697;28;20048;-37
2023/12/24 01:39:46;;;;;;;0.60;0.60;;;6.60;99.90;;;;;;5065765;28;20028;-38
2023/12/24 01:42:12;;;;;;;0.90;0.80;;;6.70;99.90;;;;;;5067054;28;20040;-34
2023/12/24 01:44:37;;;;;;;0.70;0.70;;;6.60;99.90;;;;;;5066709;28;20036;-39
2023/12/24 01:47:03;;;;;;;0.70;0.70;;;6.70;99.90;;;;;;5063071;28;20432;-37
2023/12/24 01:49:30;;;;;;;0.70;0.70;;;6.70;99.90;;;;;;5067193;28;20059;-35
2023/12/24 01:51:56;;;;;;;0.77;0.77;;;6.70;99.90;;;;;;5064480;28;20029;-38
2023/12/24 01:54:22;;;;;;;0.60;0.60;;;6.60;99.90;;;;;;5063168;28;20039;-37
2023/12/24 01:56:48;;;;;;;0.73;0.73;;;6.70;99.90;;;;;;5063798;28;20087;-39
2023/12/24 01:59:15;;;;;;;0.70;0.70;;;6.60;99.90;;;;;;5064919;28;20028;-37
2023/12/24 02:01:41;;;;;;;0.73;0.73;;;6.60;99.90;;;;;;5066028;28;20098;-41
2023/12/24 02:04:07;;;;;;;0.60;0.60;;;6.70;99.90;;;;;;5063195;28;20020;-40
2023/12/24 02:06:34;;;;;;;0.60;0.60;;;6.60;99.90;;;;;;5064628;28;20496;-41
2023/12/24 02:09:00;;;;;;;0.60;0.60;;;6.70;99.90;;;;;;5066186;28;20111;-36
2023/12/24 02:11:26;;;;;;;0.60;0.60;;;6.70;99.90;;;;;;5065677;28;20195;-36
2023/12/24 02:13:52;;;;;;;0.80;0.80;;;6.60;99.90;;;;;;5064329;28;20029;-37
2023/12/24 02:16:20;;;;;;;0.93;0.60;;;6.60;99.90;;;;;;5056408;28;20028;-35
2023/12/24 02:18:46;;;;;;;0.70;0.70;;;6.60;99.90;;;;;;5060533;28;20039;-37
2023/12/24 02:21:12;;;;;;;0.80;0.80;;;6.70;99.90;;;;;;5065715;28;20039;-33
2023/12/24 02:23:38;;;;;;;0.70;0.70;;;6.70;99.90;;;;;;5063598;28;20488;-33
2023/12/24 02:26:11;;;;;;;0.80;0.80;;;6.70;99.90;;;;;;5065418;28;20477;-38
2023/12/24 02:28:42;;;;;;;0.50;0.50;;;6.70;99.90;;;;;;5061191;28;20025;-37
2023/12/24 02:31:10;;;;;;;0.60;0.60;;;6.70;99.90;;;;;;5066115;28;20036;-39
2023/12/24 02:33:40;;;;;;;0.70;0.70;;;6.70;99.90;;;;;;5063760;28;20021;-38
2023/12/24 02:36:11;;;;;;;0.60;0.60;;;6.70;99.90;;;;;;5060189;28;20025;-39
2023/12/24 02:38:36;;;;;;;0.60;0.60;;;6.70;99.90;;;;;;5058437;28;20034;-34
2023/12/24 02:41:02;;;;;;;0.60;0.60;;;6.70;99.90;;;;;;5060405;28;20037;-38
2023/12/24 02:43:28;;;;;;;0.60;0.60;;;6.70;99.90;;;;;;5062588;28;20477;-38
2023/12/24 02:45:53;;;;;;;0.68;0.68;;;6.70;99.90;;;;;;5062072;28;20024;-36
2023/12/24 02:48:19;;;;;;;0.60;0.60;;;6.70;99.90;;;;;;5060825;28;20119;-37
2023/12/24 02:50:45;;;;;;;2.58;0.80;;;6.70;99.90;;;;;;5066493;28;20028;-38
2023/12/24 02:53:10;;;;;;;0.60;0.60;;;6.70;99.90;;;;;;5060002;28;20784;-37
2023/12/24 02:55:36;;;;;;;0.70;0.70;;;6.70;99.90;;;;;;5062169;28;20060;-38
2023/12/24 02:58:02;;;;;;;0.70;0.70;;;6.70;99.90;;;;;;5057721;28;20170;-37
2023/12/24 03:00:27;;;;;;;0.60;0.60;;;6.70;99.90;;;;;;5062911;28;20101;-37
2023/12/24 03:02:53;;;;;;;0.80;0.80;;;6.70;99.90;;;;;;5062721;28;20467;-33
2023/12/24 03:05:18;;;;;;;0.70;0.70;;;6.70;99.90;;;;;;5065573;28;20032;-39
2023/12/24 03:07:44;;;;;;;0.70;0.70;;;6.70;99.90;;;;;;5064207;28;20919;-38
2023/12/24 03:10:09;;;;;;;0.65;0.65;;;6.70;99.90;;;;;;5062721;28;20396;-33
2023/12/24 03:12:35;;;;;;;0.70;0.70;;;6.70;99.90;;;;;;5064205;28;20146;-32
2023/12/24 03:15:01;;;;;;;0.70;0.70;;;6.70;99.90;;;;;;5061902;28;20032;-33
2023/12/24 03:17:26;;;;;;;0.60;0.60;;;6.70;99.90;;;;;;5063547;28;20101;-33
2023/12/24 03:19:52;;;;;;;0.63;0.63;;;6.70;99.90;;;;;;5061092;28;20025;-34
2023/12/24 03:22:17;;;;;;;0.82;0.82;;;6.70;99.90;;;;;;5063161;28;20075;-36
2023/12/24 03:24:43;;;;;;;0.73;0.73;;;6.70;99.90;;;;;;5062933;28;20372;-37
2023/12/24 03:27:09;;;;;;;0.90;0.90;;;6.70;99.90;;;;;;5064577;28;20033;-37
2023/12/24 03:29:34;;;;;;;0.85;0.85;;;6.80;99.90;;;;;;5062073;28;20032;-38
2023/12/24 03:32:00;;;;;;;0.77;0.77;;;6.70;99.90;;;;;;5062218;28;20135;-37
2023/12/24 03:34:25;;;;;;;1.38;0.75;;;6.70;99.90;;;;;;5065300;28;20086;-38
2023/12/24 03:36:51;;;;;;;0.60;0.60;;;6.70;99.90;;;;;;5065677;28;20540;-35
2023/12/24 03:39:16;;;;;;;0.70;0.70;;;6.80;99.90;;;;;;5063953;28;20056;-32
2023/12/24 03:41:42;;;;;;;0.82;0.82;;;6.70;99.90;;;;;;5063335;28;20040;-37
2023/12/24 03:44:07;;;;;;;0.73;0.73;;;6.80;99.90;;;;;;5061653;28;20024;-38
2023/12/24 03:46:33;;;;;;;0.80;0.80;;;6.80;99.90;;;;;;5061179;28;20483;-38
2023/12/24 03:48:59;;;;;;;0.80;0.80;;;6.80;99.90;;;;;;5061538;28;20064;-36
2023/12/24 03:51:24;;;;;;;1.17;0.80;;;6.70;99.90;;;;;;5065320;28;20032;-39
2023/12/24 03:53:50;;;;;;;0.60;0.60;;;6.70;99.90;;;;;;5063911;28;20017;-36
2023/12/24 03:56:16;;;;;;;0.60;0.60;;;6.80;99.90;;;;;;5063813;28;20028;-37
2023/12/24 03:58:41;;;;;;;0.70;0.70;;;6.70;99.90;;;;;;5063449;28;20526;-39
2023/12/24 04:01:10;;;;;;;1.40;0.80;;;6.70;99.90;;;;;;5064702;28;20029;-38
2023/12/24 04:03:37;;;;;;;0.73;0.73;;;6.70;99.90;;;;;;5064989;28;20567;-39
2023/12/24 04:06:13;;;;;;;0.80;0.80;;;6.70;99.90;;;;;;5063580;28;20135;-34
2023/12/24 04:08:39;;;;;;;0.70;0.70;;;6.70;99.90;;;;;;5065076;28;20036;-34
2023/12/24 04:11:17;;;;;;;0.70;0.70;;;6.70;99.90;;;;;;5062204;28;20054;-39
2023/12/24 04:13:43;;;;;;;0.70;0.70;;;6.80;99.90;;;;;;5061272;28;20032;-39
2023/12/24 04:16:08;;;;;;;0.80;0.80;;;6.80;99.90;;;;;;5065419;28;20270;-39
2023/12/24 04:18:34;;;;;;;0.63;0.63;;;6.80;99.90;;;;;;5068608;28;20475;-39
2023/12/24 04:21:00;;;;;;;0.88;0.70;;;6.80;99.90;;;;;;5065639;28;20028;-41
2023/12/24 04:23:26;;;;;;;0.63;0.63;;;6.80;99.90;;;;;;5067395;28;20403;-40
2023/12/24 04:25:52;;;;;;;1.17;0.88;;;6.80;99.90;;;;;;5064612;28;20032;-40
2023/12/24 04:28:17;;;;;;;0.70;0.70;;;6.80;99.90;;;;;;5066875;28;20025;-38
2023/12/24 04:30:43;;;;;;;0.80;0.80;;;6.80;99.90;;;;;;5068152;28;20029;-36
2023/12/24 04:33:09;;;;;;;0.70;0.70;;;6.80;99.90;;;;;;5066812;28;20043;-33
2023/12/24 04:35:34;;;;;;;0.60;0.60;;;6.80;99.90;;;;;;5067292;28;20017;-34
2023/12/24 04:38:01;;;;;;;0.60;0.60;;;6.90;99.90;;;;;;5068632;28;20352;-35
2023/12/24 04:40:26;;;;;;;0.68;0.68;;;6.90;99.90;;;;;;5064261;28;20027;-35
2023/12/24 04:42:52;;;;;;;0.60;0.60;;;6.90;99.90;;;;;;5064772;28;20032;-33
2023/12/24 04:45:18;;;;;;;0.50;0.50;;;6.90;99.90;;;;;;5067014;28;20024;-35
2023/12/24 04:47:43;;;;;;;0.70;0.70;;;6.80;99.90;;;;;;5063127;28;20028;-34
2023/12/24 04:50:09;;;;;;;0.60;0.60;;;6.90;99.90;;;;;;5065991;28;20028;-32
2023/12/24 04:52:38;;;;;;;0.60;0.60;;;6.90;99.90;;;;;;5066210;28;20077;-34
2023/12/24 04:55:04;;;;;;;0.60;0.60;;;6.90;99.90;;;;;;5066525;28;20028;-32
2023/12/24 04:57:30;;;;;;;1.55;0.70;;;6.90;99.90;;;;;;5064107;28;20106;-33
2023/12/24 04:59:56;;;;;;;0.50;0.50;;;6.90;99.90;;;;;;5066137;28;20027;-35
2023/12/24 05:02:22;;;;;;;0.80;0.80;;;6.90;99.90;;;;;;5063651;28;20408;-32
2023/12/24 05:04:48;;;;;;;0.70;0.70;;;6.90;99.90;;;;;;5066928;28;20040;-33
2023/12/24 05:07:14;;;;;;;0.80;0.80;;;6.90;99.90;;;;;;5065013;28;20028;-34
2023/12/24 05:09:41;;;;;;;0.60;0.60;;;6.90;99.90;;;;;;5061990;28;20758;-36
2023/12/24 05:12:07;;;;;;;0.63;0.63;;;6.90;99.90;;;;;;5066850;28;20140;-34
2023/12/24 05:14:35;;;;;;;0.60;0.60;;;6.90;99.90;;;;;;5067193;28;20036;-35
2023/12/24 05:17:04;;;;;;;0.60;0.60;;;6.90;99.90;;;;;;5065248;28;20032;-35
2023/12/24 05:19:30;;;;;;;;;;;6.90;99.90;;;;;;5068923;28;20035;-34
2023/12/24 05:21:55;;;;;;;0.65;0.65;;;6.90;99.90;;;;;;5066755;28;19920;-33
2023/12/24 05:24:21;;;;;;;0.65;0.65;;;6.90;99.90;;;;;;5067466;28;20538;-34
2023/12/24 05:26:47;;;;;;;0.65;0.65;;;6.90;99.90;;;;;;5067074;28;20423;-34
2023/12/24 05:29:13;;;;;;;0.70;0.70;;;6.90;99.90;;;;;;5064020;28;20021;-32
2023/12/24 05:31:41;;;;;;;0.70;0.70;;;6.90;99.90;;;;;;5067598;28;20116;-35
2023/12/24 05:34:08;;;;;;;0.73;0.70;;;6.80;99.90;;;;;;5067975;28;20549;-34
2023/12/24 05:36:35;;;;;;;0.60;0.60;;;6.90;99.90;;;;;;5067333;28;20040;-33
2023/12/24 05:39:01;;;;;;;0.80;0.80;;;6.80;99.90;;;;;;5066641;28;20107;-32
2023/12/24 05:41:27;;;;;;;0.60;0.60;;;6.80;99.90;;;;;;5065938;28;20044;-39
2023/12/24 05:43:53;;;;;;;0.60;0.60;;;6.80;99.90;;;;;;5065948;28;20110;-36
2023/12/24 05:46:20;;;;;;;0.77;0.77;;;6.80;99.90;;;;;;5066982;28;20032;-37
2023/12/24 05:48:46;;;;;;;0.70;0.70;;;6.80;99.90;;;;;;5064000;28;20111;-39
2023/12/24 05:51:12;;;;;;;0.88;0.88;;;6.90;99.90;;;;;;5064477;28;20115;-38
2023/12/24 05:53:37;;;;;;;0.85;0.82;;;6.80;99.90;;;;;;5065447;28;20036;-36
2023/12/24 05:56:03;;;;;;;3.80;0.93;;;6.80;99.90;;;;;;5065779;28;20415;-39
2023/12/24 05:58:29;;;;;;;1.15;0.80;;;6.80;99.90;;;;;;5068825;28;20097;-37
2023/12/24 06:00:55;;;;;;;2.42;0.88;;;6.80;99.90;;;;;;5063663;28;20032;-37
2023/12/24 06:03:20;;;;;;;0.80;0.80;;;6.90;99.90;;;;;;5060727;28;20032;-39
2023/12/24 06:05:46;;;;;;;0.85;0.85;;;6.90;99.90;;;;;;5063771;28;20426;-39
2023/12/24 06:08:18;;;;;;;0.60;0.60;;;6.90;99.90;;;;;;5066033;28;20093;-39
2023/12/24 06:10:44;;;;;;;1.23;1.13;;;6.80;99.90;;;;;;5061139;28;20037;-38
2023/12/24 06:13:10;;;;;;;0.77;0.77;;;6.90;99.90;;;;;;5063112;28;20554;-40
2023/12/24 06:15:36;;;;;;;0.75;0.75;;;6.90;99.90;;;;;;5066204;28;20103;-39
2023/12/24 06:18:02;;;;;;;0.60;0.60;;;6.90;99.90;;;;;;5066373;28;20564;-39
2023/12/24 06:20:32;;;;;;;0.65;0.65;;;6.90;99.90;;;;;;5064544;28;20025;-39
2023/12/24 06:22:58;;;;;;;1.10;1.10;;;6.90;99.90;;;;;;5065911;28;20051;-37
2023/12/24 06:25:25;;;;;;;0.90;0.90;;;6.90;99.90;;;;;;5066394;28;20035;-37
2023/12/24 06:27:51;;;;;;;0.70;0.70;;;6.90;99.90;;;;;;5064614;28;20044;-38
2023/12/24 06:30:18;;;;;;;0.60;0.60;;;6.90;99.90;;;;;;5060765;28;20111;-39
2023/12/24 06:32:45;;;;;;;0.70;0.70;;;6.90;99.90;;;;;;5059620;28;20063;-39
2023/12/24 06:35:10;;;;;;;0.70;0.70;;;6.90;99.90;;;;;;5064752;28;20396;-38
2023/12/24 06:37:36;;;;;;;0.75;0.75;;;6.90;99.90;;;;;;5063101;28;20025;-39
2023/12/24 06:40:03;;;;;;;0.63;0.63;;;6.90;99.90;;;;;;5064181;28;20047;-33
2023/12/24 06:42:29;;;;;;;0.70;0.70;;;6.90;99.90;;;;;;5064855;28;20373;-34
2023/12/24 06:44:54;;;;;;;0.70;0.70;;;6.90;99.90;;;;;;5062392;28;20043;-34
2023/12/24 06:47:20;;;;;;;0.80;0.80;;;6.90;99.90;;;;;;5065711;28;20479;-33
2023/12/24 06:49:46;;;;;;;0.70;0.70;;;6.90;99.90;;;;;;5062988;28;20032;-32
2023/12/24 06:52:11;;;;;;;1.20;0.80;;;7.00;99.90;;;;;;5065746;28;20845;-39
2023/12/24 06:54:37;;;;;;;1.10;1.10;;;6.90;99.90;;;;;;5066937;28;20028;-38
2023/12/24 06:57:07;;;;;;;0.90;0.90;;;6.90;99.90;;;;;;5063330;28;20451;-38
2023/12/24 06:59:32;;;;;;;0.70;0.70;;;6.90;99.90;;;;;;5065896;28;20025;-39
2023/12/24 07:01:59;;;;;;;0.80;0.80;;;6.90;99.90;;;;;;5063943;28;20033;-36
2023/12/24 07:04:25;;;;;;;1.13;1.13;;;7.00;99.90;;;;;;5044880;28;20028;-38
2023/12/24 07:06:51;;;;;;;0.75;0.75;;;7.00;99.90;;;;;;5062890;28;20043;-38
2023/12/24 07:09:16;;;;;;;0.82;0.82;;;7.00;99.90;;;;;;5061105;28;20024;-38
2023/12/24 07:11:42;;;;;;;0.80;0.80;;;7.00;99.90;;;;;;5063109;28;20122;-38
2023/12/24 07:14:08;;;;;;;0.75;0.75;;;7.00;99.90;;;;;;5062494;28;20476;-39
2023/12/24 07:16:34;;;;;;;0.95;0.90;;;6.90;99.90;;;;;;5063652;28;20479;-38
2023/12/24 07:19:02;;;;;;;0.80;0.80;;;7.00;99.90;;;;;;5065500;28;20021;-38
2023/12/24 07:21:28;;;;;;;0.90;0.90;;;7.00;99.90;;;;;;5063537;28;20068;-38
2023/12/24 07:23:54;;;;;;;0.90;0.90;;;7.00;99.90;;;;;;5066616;28;20059;-35
2023/12/24 07:26:20;;;;;;;0.90;0.88;;;7.00;99.90;;;;;;5065271;28;20768;-38
2023/12/24 07:28:46;;;;;;;0.80;0.80;;;7.00;99.90;;;;;;5061835;28;20058;-39
2023/12/24 07:31:14;;;;;;;0.80;0.80;;;7.00;99.90;;;;;;5061377;28;20041;-38
2023/12/24 07:33:39;;;;;;;1.05;0.80;;;7.00;99.90;;;;;;5065426;28;20020;-38
2023/12/24 07:36:05;;;;;;;0.70;0.70;;;7.10;99.90;;;;;;5060995;28;20028;-38
2023/12/24 07:38:31;;;;;;;0.60;0.60;;;7.10;99.90;;;;;;5061552;28;20120;-38
2023/12/24 07:40:57;;;;;;;0.65;0.65;;;7.10;99.90;;;;;;5065351;28;20029;-36
2023/12/24 07:43:23;;;;;;;0.70;0.70;;;7.20;99.90;;;;;;5067005;28;20020;-39
2023/12/24 07:45:49;;;;;;;0.60;0.60;;;7.10;99.90;;;;;;5064451;28;20788;-38
2023/12/24 07:48:14;;;;;;;0.60;0.60;;;7.10;99.90;;;;;;5059847;28;20067;-38
2023/12/24 07:50:40;;;;;;;0.60;0.60;;;7.10;99.90;;;;;;5059577;28;20036;-38
2023/12/24 07:53:06;;;;;;;0.70;0.70;;;7.10;99.90;;;;;;5068726;28;20671;-39
2023/12/24 07:55:32;;;;;;;0.75;0.75;;;7.10;99.90;;;;;;5067678;28;20075;-39
2023/12/24 07:57:57;;;;;;;0.60;0.60;;;7.10;99.90;;;;;;5068129;28;20028;-38
2023/12/24 08:00:26;;;;;;;0.60;0.60;;;7.20;99.90;;;;;;5067691;28;20070;-32
2023/12/24 08:02:51;;;;;;;0.70;0.70;;;7.20;99.90;;;;;;5063983;28;20037;-31
2023/12/24 08:05:17;;;;;;;0.60;0.60;;;7.20;99.90;;;;;;5070262;28;20048;-31
2023/12/24 08:07:43;;;;;;;0.70;0.70;;;7.30;99.90;;;;;;5064835;28;20083;-36
2023/12/24 08:10:09;;;;;;;0.60;0.60;;;7.30;99.90;;;;;;5063418;28;20064;-32
2023/12/24 08:12:34;;;;;;;0.70;0.70;;;7.30;99.90;;;;;;5066649;28;20518;-29
2023/12/24 08:15:00;;;;;;;0.70;0.70;;;7.30;99.90;;;;;;5065483;28;20029;-31
2023/12/24 08:17:26;;;;;;;0.60;0.60;;;7.30;99.90;;;;;;5067478;28;20021;-33
2023/12/24 08:19:54;;;;;;;0.90;0.90;;;7.30;99.90;;;;;;5068640;28;20064;-32
2023/12/24 08:22:20;;;;;;;0.65;0.65;;;7.30;99.90;;;;;;5066511;28;20511;-35
2023/12/24 08:24:46;;;;;;;0.70;0.70;;;7.30;99.90;;;;;;5063949;28;20087;-32
2023/12/24 08:27:12;;;;;;;0.65;0.65;;;7.30;99.90;;;;;;5067011;28;20500;-34
2023/12/24 08:29:37;;;;;;;0.70;0.70;;;7.30;99.90;;;;;;5063564;28;20024;-33
2023/12/24 08:32:03;;;;;;;0.80;0.80;;;7.40;99.90;;;;;;5067006;28;20032;-32
2023/12/24 08:34:28;;;;;;;0.70;0.70;;;7.40;99.90;;;;;;5068015;28;20475;-29
2023/12/24 08:36:54;;;;;;;0.98;0.98;;;7.40;99.90;;;;;;5063750;28;20059;-32
2023/12/24 08:39:20;;;;;;;0.60;0.60;;;7.40;99.90;;;;;;5066821;28;20082;-32
2023/12/24 08:41:45;;;;;;;1.00;0.95;;;7.40;99.90;;;;;;5064691;28;20122;-31
2023/12/24 08:44:11;;;;;;;0.60;0.60;;;7.40;99.90;;;;;;5060710;28;20068;-28
2023/12/24 08:46:36;;;;;;;0.98;0.95;;;7.40;99.90;;;;;;5065738;28;20028;-33
2023/12/24 08:49:02;;;;;;;3.10;2.75;;;7.40;99.90;;;;;;5062631;28;20041;-29
2023/12/24 08:51:28;;;;;;;5.07;3.15;;;7.40;99.90;;;;;;5062775;28;20056;-32
2023/12/24 08:53:54;;;;;;;1.30;1.20;;;7.40;99.90;;;;;;5068220;28;20099;-33
2023/12/24 08:56:19;;;;;;;21.60;9.93;;;7.40;99.90;;;;;;5067090;28;20107;-29
2023/12/24 08:58:45;;;;;;;10.55;5.68;;;7.30;99.90;;;;;;5067700;28;20108;-32
2023/12/24 09:01:11;;;;;;;5.80;3.50;;;7.40;99.90;;;;;;5064881;28;20127;-33
2023/12/24 09:03:36;;;;;;;8.35;4.32;;;7.40;99.90;;;;;;5067167;28;20033;-33
2023/12/24 09:06:02;;;;;;;11.70;6.78;;;7.40;99.90;;;;;;5067320;28;20032;-34
2023/12/24 09:08:27;;;;;;;8.00;4.55;;;7.40;99.90;;;;;;5067043;28;20575;-33
2023/12/24 09:10:53;;;;;;;4.72;3.33;;;7.40;99.90;;;;;;5066893;28;20031;-32
2023/12/24 09:13:24;;;;;;;2.85;2.65;;;7.40;99.90;;;;;;5066864;28;20028;-41
2023/12/24 09:15:53;;;;;;;5.00;4.07;;;7.40;99.90;;;;;;5065949;28;20056;-40
2023/12/24 09:18:19;;;;;;;1.17;1.17;;;7.40;99.90;;;;;;5065392;28;20024;-40
2023/12/24 09:20:45;;;;;;;1.00;1.00;;;7.40;99.90;;;;;;5063390;28;20047;-39
2023/12/24 09:23:11;;;;;;;0.73;0.73;;;7.40;99.90;;;;;;5067277;28;20037;-40
2023/12/24 09:25:37;;;;;;;0.77;0.77;;;7.50;99.90;;;;;;5064862;28;20116;-39
2023/12/24 09:28:03;;;;;;;0.80;0.80;;;7.50;99.90;;;;;;5063348;28;20033;-31
2023/12/24 09:30:29;;;;;;;0.70;0.70;;;7.50;99.90;;;;;;5077124;28;20033;-40
2023/12/24 09:33:02;;;;;;;0.90;0.90;;;7.60;99.90;;;;;;5064373;28;20043;-36
2023/12/24 09:35:30;;;;;;;1.05;1.02;;;7.60;99.90;;;;;;5051668;28;20486;-37
2023/12/24 09:37:56;;;;;;;0.85;0.85;;;7.60;99.90;;;;;;5065653;28;20028;-39
2023/12/24 09:40:22;;;;;;;0.70;0.70;;;7.70;99.90;;;;;;5064195;28;20115;-40
2023/12/24 09:42:51;;;;;;;0.73;0.73;;;7.70;99.90;;;;;;5063598;28;20170;-41
2023/12/24 09:45:17;;;;;;;0.70;0.70;;;7.70;99.90;;;;;;5065178;28;20032;-39
2023/12/24 09:47:42;;;;;;;1.30;0.80;;;7.80;99.90;;;;;;5065853;28;20036;-40
2023/12/24 09:50:08;;;;;;;0.95;0.90;;;7.70;99.90;;;;;;5064013;28;20123;-41
2023/12/24 09:52:34;;;;;;;0.90;0.90;;;7.80;99.90;;;;;;5066027;28;20029;-39
2023/12/24 09:55:01;;;;;;;0.82;0.82;;;7.80;99.90;;;;;;5063469;28;20028;-41
2023/12/24 09:57:26;;;;;;;1.10;1.02;;;7.90;99.90;;;;;;5063900;28;20024;-40
2023/12/24 09:59:52;;;;;;;0.90;0.90;;;7.90;99.90;;;;;;5063392;28;20025;-39
2023/12/24 10:02:18;;;;;;;0.98;0.90;;;8.00;99.90;;;;;;5061470;28;20033;-40
2023/12/24 10:04:43;;;;;;;0.90;0.90;;;8.00;99.90;;;;;;5062685;28;20483;-38
2023/12/24 10:07:09;;;;;;;0.90;0.90;;;8.00;99.90;;;;;;5064095;28;20033;-41
2023/12/24 10:10:02;;;;;;;0.70;0.70;;;8.10;99.90;;;;;;5059072;28;20039;-40
2023/12/24 10:12:28;;;;;;;0.75;0.75;;;8.10;99.90;;;;;;5058618;28;20123;-31
2023/12/24 10:14:58;;;;;;;1.25;1.17;;;8.10;99.90;;;;;;5066322;28;20155;-30
2023/12/24 10:17:35;;;;;;;0.90;0.90;;;8.10;99.90;;;;;;5063488;28;20032;-30
2023/12/24 10:20:06;;;;;;;0.80;0.80;;;8.10;99.90;;;;;;5064170;28;20488;-31
2023/12/24 10:22:33;;;;;;;0.70;0.70;;;8.20;99.90;;;;;;5055612;28;20036;-31
2023/12/24 10:25:07;;;;;;;0.80;0.80;;;8.20;99.90;;;;;;5064817;28;20033;-31
2023/12/24 10:27:33;;;;;;;0.70;0.70;;;8.20;99.90;;;;;;5048323;28;20033;-30
2023/12/24 10:30:12;;;;;;;0.77;0.77;;;8.20;99.90;;;;;;5071549;28;20112;-31
2023/12/24 10:32:41;;;;;;;0.80;0.80;;;8.30;99.90;;;;;;5062375;28;20041;-35
2023/12/24 10:35:08;;;;;;;0.75;0.75;;;8.30;99.90;;;;;;5073781;28;20488;-31
2023/12/24 10:37:34;;;;;;;0.70;0.70;;;8.40;99.90;;;;;;5068677;28;20040;-29
2023/12/24 10:40:10;;;;;;;0.63;0.55;;;8.30;99.90;;;;;;5061516;28;20033;-29
2023/12/24 10:42:37;;;;;;;0.70;0.70;;;8.40;99.90;;;;;;5061154;28;20128;-30
2023/12/24 10:45:12;;;;;;;1.08;0.63;;;8.50;99.90;;;;;;5060257;28;20144;-29
2023/12/24 10:47:38;;;;;;;0.70;0.70;;;8.50;99.90;;;;;;5062362;28;20105;-35
2023/12/24 10:50:05;;;;;;;0.70;0.70;;;8.50;99.90;;;;;;5067270;28;20103;-32
2023/12/24 10:52:31;;;;;;;0.70;0.70;;;8.50;99.90;;;;;;5064959;28;20519;-31
2023/12/24 10:54:59;;;;;;;0.70;0.70;;;8.50;99.90;;;;;;5069392;28;20107;-29
2023/12/24 10:57:42;;;;;;;0.80;0.80;;;8.50;99.90;;;;;;5065271;28;20559;-33
2023/12/24 11:00:12;;;;;;;3.40;0.70;;;8.50;99.90;;;;;;5065450;28;20021;-30
2023/12/24 11:02:45;;;;;;;0.63;0.63;;;8.50;99.90;;;;;;5064764;28;20056;-35
2023/12/24 11:05:11;;;;;;;0.95;0.95;;;8.50;99.90;;;;;;5066756;28;20025;-33
2023/12/24 11:07:46;;;;;;;0.65;0.65;;;8.50;99.90;;;;;;5067770;28;20036;-29
2023/12/24 11:10:40;;;;;;;0.50;0.50;;;8.60;99.90;;;;;;5064617;28;20029;-29
2023/12/24 11:13:36;;;;;;;0.82;0.82;;;8.60;99.90;;;;;;5064647;28;20040;-31
2023/12/24 11:16:12;;;;;;;1.23;0.73;;;8.50;99.90;;;;;;5067217;28;20108;-32
2023/12/24 11:18:45;;;;;;;0.77;0.73;;;8.50;99.90;;;;;;5063734;28;20039;-29
2023/12/24 11:21:12;;;;;;;0.70;0.70;;;8.50;99.90;;;;;;5065704;28;20119;-29
2023/12/24 11:23:40;;;;;;;0.75;0.75;;;8.40;99.90;;;;;;5063359;28;20024;-32
2023/12/24 11:26:32;;;;;;;0.80;0.80;;;8.30;99.90;;;;;;5061403;28;20025;-31
2023/12/24 11:28:59;;;;;;;0.73;0.73;;;8.30;99.90;;;;;;5062409;28;20028;-33
2023/12/24 11:31:26;;;;;;;0.80;0.80;;;8.30;99.90;;;;;;5063458;28;20044;-35
2023/12/24 11:33:54;;;;;;;0.60;0.60;;;8.20;99.90;;;;;;5070432;28;20036;-34
2023/12/24 11:36:20;;;;;;;0.75;0.75;;;8.30;99.90;;;;;;5065084;28;20120;-32
2023/12/24 11:38:47;;;;;;;0.70;0.70;;;8.20;99.90;;;;;;5066139;28;20119;-34
2023/12/24 11:41:14;;;;;;;1.05;1.05;;;8.20;99.90;;;;;;5064293;28;20482;-31
2023/12/24 11:43:42;;;;;;;0.80;0.80;;;8.20;99.90;;;;;;5062575;28;20475;-36
2023/12/24 11:46:08;;;;;;;0.73;0.73;;;8.20;99.90;;;;;;5061051;28;20029;-34
2023/12/24 11:48:35;;;;;;;0.98;0.98;;;8.20;99.90;;;;;;5062189;28;20396;-33
2023/12/24 11:51:09;;;;;;;2.42;2.22;;;8.10;99.90;;;;;;5064223;28;20433;-36
2023/12/24 11:53:38;;;;;;;7.82;6.90;;;8.10;99.90;;;;;;5062405;28;20772;-34
2023/12/24 11:56:17;;;;;;;2.28;2.17;;;8.10;99.90;;;;;;5062497;28;20025;-33
2023/12/24 11:58:55;;;;;;;3.35;2.78;;;8.10;99.90;;;;;;5066169;28;20020;-33
2023/12/24 12:01:24;;;;;;;1.10;1.10;;;8.20;99.90;;;;;;5060592;28;20043;-31
2023/12/24 12:04:06;;;;;;;1.35;1.25;;;8.20;99.90;;;;;;5064232;28;20025;-33
2023/12/24 12:06:34;;;;;;;1.05;0.93;;;8.20;99.90;;;;;;5063689;28;20051;-33
2023/12/24 12:09:04;;;;;;;1.00;1.00;;;8.30;99.90;;;;;;5062490;28;20450;-35
2023/12/24 12:11:30;;;;;;;1.42;1.33;;;8.30;99.90;;;;;;5060683;28;20119;-36
2023/12/24 12:13:58;;;;;;;1.40;1.30;;;8.30;99.90;;;;;;5061458;28;20078;-34
2023/12/24 12:16:24;;;;;;;1.10;1.10;;;8.30;99.90;;;;;;5063918;28;20021;-34
2023/12/24 12:18:50;;;;;;;1.58;1.48;;;8.30;99.90;;;;;;5068136;28;20032;-32
2023/12/24 12:21:15;;;;;;;1.00;1.00;;;8.30;99.90;;;;;;5065994;28;20503;-34
2023/12/24 12:23:41;;;;;;;0.98;0.98;;;8.30;99.90;;;;;;5067814;28;20043;-34
2023/12/24 12:26:07;;;;;;;1.25;1.05;;;8.20;99.90;;;;;;5063622;28;20056;-33
2023/12/24 12:28:35;;;;;;;1.00;1.00;;;8.20;99.90;;;;;;5062190;28;20070;-34
2023/12/24 12:31:01;;;;;;;0.88;0.88;;;8.20;99.90;;;;;;5063583;28;20495;-38
2023/12/24 12:33:27;;;;;;;0.75;0.75;;;8.20;99.90;;;;;;5063224;28;20043;-37
2023/12/24 12:35:53;;;;;;;1.83;1.73;;;8.20;99.90;;;;;;5060682;28;20419;-34
2023/12/24 12:38:19;;;;;;;0.90;0.90;;;8.20;99.90;;;;;;5066408;28;20487;-39
2023/12/24 12:40:45;;;;;;;0.90;0.90;;;8.30;99.90;;;;;;5064316;28;20063;-30
2023/12/24 12:43:10;;;;;;;1.27;0.82;;;8.30;99.90;;;;;;5064249;28;20407;-29
2023/12/24 12:45:45;;;;;;;1.42;0.80;;;8.30;99.90;;;;;;5068138;28;20115;-31
2023/12/24 12:48:10;;;;;;;0.70;0.70;;;8.30;99.90;;;;;;5062288;28;20474;-31
2023/12/24 12:50:36;;;;;;;0.80;0.80;;;8.40;99.90;;;;;;5083447;28;20059;-30
2023/12/24 12:53:02;;;;;;;0.82;0.82;;;8.40;99.90;;;;;;5065922;28;20032;-30
2023/12/24 12:55:30;;;;;;;1.70;0.90;;;8.40;99.90;;;;;;5069955;28;20391;-30
2023/12/24 12:57:56;;;;;;;0.63;0.63;;;8.40;99.90;;;;;;5065248;28;20392;-36